createdAt,value
2019-03-20T00:00:03.177Z,0.00
2019-03-20T00:01:03.114Z,0.00
2019-03-20T00:02:03.093Z,0.00
2019-03-20T00:03:02.922Z,0.00
2019-03-20T00:04:03.897Z,0.00
2019-03-20T00:05:02.743Z,0.00
2019-03-20T00:06:02.680Z,0.00
2019-03-20T00:07:02.585Z,0.00
2019-03-20T00:08:02.594Z,0.00
2019-03-20T00:09:02.391Z,0.00
2019-03-20T00:10:04.346Z,0.00
2019-03-20T00:11:02.219Z,0.00
2019-03-20T00:12:02.144Z,0.00
2019-03-20T00:13:02.114Z,0.00
2019-03-20T00:14:01.955Z,0.00
2019-03-20T00:15:01.875Z,0.00
2019-03-20T00:16:08.796Z,0.00
2019-03-20T00:17:03.950Z,0.00
2019-03-20T00:18:01.608Z,0.00
2019-03-20T00:19:01.530Z,0.00
2019-03-20T00:20:01.437Z,0.00
2019-03-20T00:21:01.455Z,0.00
2019-03-20T00:22:01.276Z,0.00
2019-03-20T00:23:01.262Z,0.00
2019-03-20T00:24:01.088Z,0.00
2019-03-20T00:25:01.073Z,0.00
2019-03-20T00:26:00.912Z,0.00
2019-03-20T00:27:00.836Z,0.00
2019-03-20T00:28:00.788Z,0.00
2019-03-20T00:29:00.649Z,0.00
2019-03-20T00:30:00.564Z,0.00
2019-03-20T00:31:00.500Z,0.00
2019-03-20T00:32:00.403Z,0.00
2019-03-20T00:33:00.305Z,0.00
2019-03-20T00:34:00.315Z,0.00
2019-03-20T00:35:01.256Z,0.00
2019-03-20T00:36:00.037Z,0.00
2019-03-20T00:37:00.097Z,0.00
2019-03-20T00:37:59.863Z,0.00
2019-03-20T00:38:59.805Z,0.00
2019-03-20T00:39:59.742Z,0.00
2019-03-20T00:40:59.608Z,0.00
2019-03-20T00:41:59.532Z,0.00
2019-03-20T00:42:59.453Z,0.00
2019-03-20T00:43:59.344Z,0.00
2019-03-20T00:44:59.259Z,0.00
2019-03-20T00:45:59.269Z,0.00
2019-03-20T00:46:59.097Z,0.00
2019-03-20T00:47:59.008Z,0.00
2019-03-20T00:48:58.985Z,0.00
2019-03-20T00:49:58.817Z,0.00
2019-03-20T00:50:58.734Z,0.00
2019-03-20T00:51:58.695Z,0.00
2019-03-20T00:52:58.574Z,0.00
2019-03-20T00:53:58.505Z,0.00
2019-03-20T00:54:58.387Z,0.00
2019-03-20T00:55:58.313Z,0.00
2019-03-20T00:56:58.214Z,0.00
2019-03-20T00:57:58.133Z,0.00
2019-03-20T00:58:58.132Z,0.00
2019-03-20T00:59:57.945Z,0.00
2019-03-20T01:00:57.859Z,0.00
2019-03-20T01:01:59.789Z,0.00
2019-03-20T01:02:57.708Z,0.00
2019-03-20T01:03:57.652Z,0.00
2019-03-20T01:04:57.517Z,0.00
2019-03-20T01:05:57.460Z,0.00
2019-03-20T01:06:57.333Z,0.00
2019-03-20T01:07:57.300Z,0.00
2019-03-20T01:08:57.165Z,0.00
2019-03-20T01:09:57.183Z,0.00
2019-03-20T01:10:56.999Z,0.00
2019-03-20T01:11:56.991Z,0.00
2019-03-20T01:12:56.829Z,0.00
2019-03-20T01:13:56.736Z,0.00
2019-03-20T01:14:56.708Z,0.00
2019-03-20T01:15:56.551Z,0.00
2019-03-20T01:16:56.462Z,0.00
2019-03-20T01:17:56.454Z,0.00
2019-03-20T01:18:56.294Z,0.00
2019-03-20T01:19:56.229Z,0.00
2019-03-20T01:20:56.119Z,0.00
2019-03-20T01:21:56.140Z,0.00
2019-03-20T01:22:55.958Z,0.00
2019-03-20T01:23:55.948Z,0.00
2019-03-20T01:24:55.766Z,0.00
2019-03-20T01:25:55.689Z,0.00
2019-03-20T01:26:55.592Z,0.00
2019-03-20T01:27:55.531Z,0.00
2019-03-20T01:28:55.471Z,0.00
2019-03-20T01:29:55.330Z,0.00
2019-03-20T01:30:55.247Z,0.00
2019-03-20T01:31:55.184Z,0.00
2019-03-20T01:32:55.081Z,0.00
2019-03-20T01:33:55.117Z,0.00
2019-03-20T01:34:54.998Z,0.00
2019-03-20T01:35:54.819Z,0.00
2019-03-20T01:36:54.810Z,0.00
2019-03-20T01:37:54.645Z,0.00
2019-03-20T01:38:54.621Z,0.00
2019-03-20T01:39:54.464Z,0.00
2019-03-20T01:40:54.430Z,0.00
2019-03-20T01:41:54.279Z,0.00
2019-03-20T01:42:54.275Z,0.00
2019-03-20T01:43:54.106Z,0.00
2019-03-20T01:44:54.046Z,0.00
2019-03-20T01:45:53.931Z,0.00
2019-03-20T01:46:53.957Z,0.00
2019-03-20T01:47:53.774Z,0.00
2019-03-20T01:48:53.773Z,0.00
2019-03-20T01:49:53.581Z,0.00
2019-03-20T01:50:53.579Z,0.00
2019-03-20T01:51:53.421Z,0.00
2019-03-20T01:52:55.361Z,0.00
2019-03-20T01:53:53.234Z,0.00
2019-03-20T01:54:53.139Z,0.00
2019-03-20T01:55:53.099Z,0.00
2019-03-20T01:56:52.968Z,0.00
2019-03-20T01:57:52.898Z,0.00
2019-03-20T01:58:52.812Z,0.00
2019-03-20T01:59:52.711Z,0.00
2019-03-20T02:00:52.723Z,0.00
2019-03-20T02:01:52.549Z,0.00
2019-03-20T02:02:52.562Z,0.00
2019-03-20T02:03:52.357Z,0.00
2019-03-20T02:04:52.352Z,0.00
2019-03-20T02:05:52.179Z,0.00
2019-03-20T02:06:52.148Z,0.00
2019-03-20T02:07:52.016Z,0.00
2019-03-20T02:08:51.930Z,0.00
2019-03-20T02:10:06.822Z,0.00
2019-03-20T02:10:51.745Z,0.00
2019-03-20T02:11:51.659Z,0.00
2019-03-20T02:12:51.683Z,0.00
2019-03-20T02:13:51.499Z,0.00
2019-03-20T02:14:51.489Z,0.00
2019-03-20T02:15:51.308Z,0.00
2019-03-20T02:16:51.296Z,0.00
2019-03-20T02:17:51.130Z,0.00
2019-03-20T02:18:51.134Z,0.00
2019-03-20T02:19:50.956Z,0.00
2019-03-20T02:20:50.915Z,0.00
2019-03-20T02:21:50.781Z,0.00
2019-03-20T02:22:50.733Z,0.00
2019-03-20T02:23:50.617Z,0.00
2019-03-20T02:24:50.636Z,0.00
2019-03-20T02:25:50.432Z,0.00
2019-03-20T02:26:50.442Z,0.00
2019-03-20T02:27:50.259Z,0.00
2019-03-20T02:28:50.289Z,0.00
2019-03-20T02:29:50.081Z,0.00
2019-03-20T02:30:50.061Z,0.00
2019-03-20T02:31:49.904Z,0.00
2019-03-20T02:32:51.924Z,0.00
2019-03-20T02:33:49.760Z,0.00
2019-03-20T02:34:49.647Z,0.00
2019-03-20T02:35:51.929Z,0.00
2019-03-20T02:36:49.479Z,0.00
2019-03-20T02:37:49.380Z,0.00
2019-03-20T02:38:49.328Z,0.00
2019-03-20T02:39:49.222Z,0.00
2019-03-20T02:40:49.216Z,0.00
2019-03-20T02:41:49.033Z,0.00
2019-03-20T02:42:49.021Z,0.00
2019-03-20T02:43:48.871Z,0.00
2019-03-20T02:44:48.832Z,0.00
2019-03-20T02:45:48.681Z,0.00
2019-03-20T02:46:48.647Z,0.00
2019-03-20T02:47:48.510Z,0.00
2019-03-20T02:48:48.475Z,0.00
2019-03-20T02:49:48.334Z,0.00
2019-03-20T02:50:48.258Z,0.00
2019-03-20T02:51:48.157Z,0.00
2019-03-20T02:52:48.188Z,0.00
2019-03-20T02:53:47.992Z,0.00
2019-03-20T02:54:47.973Z,0.00
2019-03-20T02:55:47.804Z,0.00
2019-03-20T02:56:47.789Z,0.00
2019-03-20T02:57:47.637Z,0.00
2019-03-20T02:58:47.626Z,0.00
2019-03-20T02:59:47.452Z,0.00
2019-03-20T03:00:47.416Z,0.00
2019-03-20T03:01:47.289Z,0.00
2019-03-20T03:02:47.217Z,0.00
2019-03-20T03:03:47.117Z,0.00
2019-03-20T03:04:47.014Z,0.00
2019-03-20T03:05:46.935Z,0.00
2019-03-20T03:06:46.846Z,0.00
2019-03-20T03:07:46.760Z,0.00
2019-03-20T03:08:46.794Z,0.00
2019-03-20T03:09:46.574Z,0.00
2019-03-20T03:10:46.569Z,0.00
2019-03-20T03:11:46.412Z,0.00
2019-03-20T03:12:46.360Z,0.00
2019-03-20T03:13:46.238Z,0.00
2019-03-20T03:14:46.145Z,0.00
2019-03-20T03:15:46.078Z,0.00
2019-03-20T03:16:45.961Z,0.00
2019-03-20T03:17:45.888Z,0.00
2019-03-20T03:18:45.820Z,0.00
2019-03-20T03:19:45.702Z,0.00
2019-03-20T03:20:45.610Z,0.00
2019-03-20T03:21:45.602Z,0.00
2019-03-20T03:22:45.445Z,0.00
2019-03-20T03:23:45.360Z,0.00
2019-03-20T03:24:45.316Z,0.00
2019-03-20T03:25:45.170Z,0.00
2019-03-20T03:26:45.093Z,0.00
2019-03-20T03:27:45.029Z,0.00
2019-03-20T03:28:44.923Z,0.00
2019-03-20T03:29:44.823Z,0.00
2019-03-20T03:30:45.766Z,0.00
2019-03-20T03:31:44.646Z,0.00
2019-03-20T03:32:44.572Z,0.00
2019-03-20T03:33:44.592Z,0.00
2019-03-20T03:34:44.390Z,0.00
2019-03-20T03:35:44.314Z,0.00
2019-03-20T03:36:44.273Z,0.00
2019-03-20T03:37:44.125Z,0.00
2019-03-20T03:38:44.080Z,0.00
2019-03-20T03:39:43.965Z,0.00
2019-03-20T03:40:43.892Z,0.00
2019-03-20T03:41:43.772Z,0.00
2019-03-20T03:42:43.699Z,0.00
2019-03-20T03:43:43.598Z,0.00
2019-03-20T03:44:43.541Z,0.00
2019-03-20T03:45:43.417Z,0.00
2019-03-20T03:46:44.447Z,0.00
2019-03-20T03:47:43.270Z,0.00
2019-03-20T03:48:43.228Z,0.00
2019-03-20T03:49:43.084Z,0.00
2019-03-20T03:50:43.038Z,0.00
2019-03-20T03:51:42.899Z,0.00
2019-03-20T03:52:49.810Z,0.00
2019-03-20T03:53:42.718Z,0.00
2019-03-20T03:54:42.688Z,0.00
2019-03-20T03:55:42.549Z,0.00
2019-03-20T03:56:42.453Z,0.00
2019-03-20T03:57:42.473Z,0.00
2019-03-20T03:58:42.283Z,0.00
2019-03-20T03:59:42.208Z,0.00
2019-03-20T04:00:42.185Z,0.00
2019-03-20T04:01:42.013Z,0.00
2019-03-20T04:02:41.932Z,0.00
2019-03-20T04:03:43.948Z,0.00
2019-03-20T04:04:41.793Z,0.00
2019-03-20T04:05:41.760Z,0.00
2019-03-20T04:06:41.632Z,0.00
2019-03-20T04:07:41.491Z,0.00
2019-03-20T04:08:41.408Z,0.00
2019-03-20T04:09:41.365Z,0.00
2019-03-20T04:10:41.229Z,0.00
2019-03-20T04:11:41.154Z,0.00
2019-03-20T04:12:41.145Z,0.00
2019-03-20T04:13:40.978Z,0.00
2019-03-20T04:14:40.896Z,0.00
2019-03-20T04:15:40.801Z,0.00
2019-03-20T04:16:40.760Z,0.00
2019-03-20T04:17:40.653Z,0.00
2019-03-20T04:18:40.532Z,0.00
2019-03-20T04:19:40.454Z,0.00
2019-03-20T04:20:42.362Z,0.00
2019-03-20T04:21:40.264Z,0.00
2019-03-20T04:22:40.189Z,0.00
2019-03-20T04:23:40.085Z,0.00
2019-03-20T04:24:40.032Z,0.00
2019-03-20T04:25:39.920Z,0.00
2019-03-20T04:26:39.927Z,0.00
2019-03-20T04:27:39.754Z,0.00
2019-03-20T04:28:39.719Z,0.00
2019-03-20T04:29:39.579Z,0.00
2019-03-20T04:30:39.478Z,0.00
2019-03-20T04:31:39.432Z,0.00
2019-03-20T04:32:39.296Z,0.00
2019-03-20T04:33:39.219Z,0.00
2019-03-20T04:34:39.172Z,0.00
2019-03-20T04:35:39.038Z,0.00
2019-03-20T04:36:47.620Z,0.00
2019-03-20T04:37:38.956Z,0.00
2019-03-20T04:38:38.803Z,0.00
2019-03-20T04:39:38.694Z,0.00
2019-03-20T04:40:38.691Z,0.00
2019-03-20T04:41:38.511Z,0.00
2019-03-20T04:42:38.423Z,0.00
2019-03-20T04:43:40.435Z,0.00
2019-03-20T04:44:38.256Z,0.00
2019-03-20T04:45:38.155Z,0.00
2019-03-20T04:46:38.097Z,0.00
2019-03-20T04:47:37.982Z,0.00
2019-03-20T04:48:37.891Z,0.00
2019-03-20T04:49:37.825Z,0.00
2019-03-20T04:50:37.718Z,0.00
2019-03-20T04:51:37.631Z,0.00
2019-03-20T04:52:37.628Z,0.00
2019-03-20T04:53:37.458Z,0.00
2019-03-20T04:54:37.380Z,0.00
2019-03-20T04:55:44.818Z,0.00
2019-03-20T04:56:37.190Z,0.00
2019-03-20T04:57:37.104Z,0.00
2019-03-20T04:58:37.138Z,0.00
2019-03-20T04:59:36.950Z,0.00
2019-03-20T05:00:36.845Z,4.00
2019-03-20T05:01:36.768Z,4.00
2019-03-20T05:02:36.673Z,0.00
2019-03-20T05:03:36.575Z,4.00
2019-03-20T05:04:36.616Z,4.00
2019-03-20T05:05:36.400Z,4.00
2019-03-20T05:06:36.313Z,4.00
2019-03-20T05:07:36.428Z,8.00
2019-03-20T05:08:36.137Z,8.00
2019-03-20T05:09:36.074Z,8.00
2019-03-20T05:10:36.035Z,12.00
2019-03-20T05:11:35.918Z,12.00
2019-03-20T05:12:35.845Z,16.00
2019-03-20T05:13:35.712Z,20.00
2019-03-20T05:14:35.688Z,28.00
2019-03-20T05:15:35.521Z,28.00
2019-03-20T05:16:35.444Z,36.00
2019-03-20T05:17:35.467Z,44.00
2019-03-20T05:18:35.268Z,52.00
2019-03-20T05:19:35.193Z,64.00
2019-03-20T05:20:35.283Z,72.00
2019-03-20T05:21:34.999Z,88.00
2019-03-20T05:22:34.918Z,104.00
2019-03-20T05:23:34.904Z,120.00
2019-03-20T05:24:34.749Z,140.00
2019-03-20T05:25:34.649Z,164.00
2019-03-20T05:26:34.708Z,188.00
2019-03-20T05:27:34.472Z,216.00
2019-03-20T05:28:34.646Z,248.00
2019-03-20T05:29:34.312Z,276.00
2019-03-20T05:30:34.221Z,316.00
2019-03-20T05:31:34.124Z,356.00
2019-03-20T05:32:34.041Z,400.00
2019-03-20T05:33:34.053Z,444.00
2019-03-20T05:34:33.886Z,496.00
2019-03-20T05:35:33.779Z,540.00
2019-03-20T05:36:33.758Z,588.00
2019-03-20T05:37:33.601Z,640.00
2019-03-20T05:38:33.510Z,692.00
2019-03-20T05:39:33.444Z,752.00
2019-03-20T05:40:33.355Z,812.00
2019-03-20T05:41:33.265Z,876.00
2019-03-20T05:42:33.195Z,940.00
2019-03-20T05:43:33.074Z,1004.00
2019-03-20T05:44:32.992Z,1084.00
2019-03-20T05:45:32.918Z,1168.00
2019-03-20T05:46:32.827Z,1252.00
2019-03-20T05:47:32.728Z,1336.00
2019-03-20T05:48:32.652Z,1424.00
2019-03-20T05:49:32.571Z,1516.00
2019-03-20T05:50:32.529Z,1624.00
2019-03-20T05:51:32.451Z,1752.00
2019-03-20T05:52:32.314Z,1912.00
2019-03-20T05:53:32.232Z,2076.00
2019-03-20T05:54:32.191Z,2232.00
2019-03-20T05:55:32.049Z,2376.00
2019-03-20T05:56:31.970Z,2504.00
2019-03-20T05:57:31.856Z,2608.00
2019-03-20T05:58:31.777Z,2704.00
2019-03-20T05:59:31.910Z,2804.00
2019-03-20T06:00:31.611Z,2892.00
2019-03-20T06:01:31.505Z,2972.00
2019-03-20T06:02:31.426Z,3028.00
2019-03-20T06:03:31.350Z,3088.00
2019-03-20T06:04:31.253Z,3132.00
2019-03-20T06:05:31.175Z,3204.00
2019-03-20T06:06:31.082Z,3260.00
2019-03-20T06:07:30.987Z,3352.00
2019-03-20T06:08:31.364Z,3480.00
2019-03-20T06:09:30.810Z,3580.00
2019-03-20T06:10:30.746Z,3640.00
2019-03-20T06:11:30.649Z,3596.00
2019-03-20T06:12:30.555Z,3440.00
2019-03-20T06:13:30.473Z,3328.00
2019-03-20T06:14:30.377Z,3392.00
2019-03-20T06:15:30.313Z,3444.00
2019-03-20T06:16:30.212Z,3400.00
2019-03-20T06:17:30.128Z,3348.00
2019-03-20T06:18:30.039Z,3300.00
2019-03-20T06:19:29.960Z,3292.00
2019-03-20T06:20:29.890Z,3320.00
2019-03-20T06:21:29.774Z,3336.00
2019-03-20T06:22:29.695Z,3348.00
2019-03-20T06:23:29.611Z,3356.00
2019-03-20T06:24:29.521Z,3304.00
2019-03-20T06:25:29.453Z,3356.00
2019-03-20T06:26:29.366Z,3404.00
2019-03-20T06:27:29.260Z,3564.00
2019-03-20T06:28:29.173Z,3776.00
2019-03-20T06:29:29.093Z,3804.00
2019-03-20T06:30:29.015Z,3716.00
2019-03-20T06:31:28.918Z,3952.00
2019-03-20T06:32:28.850Z,4244.00
2019-03-20T06:33:28.744Z,4424.00
2019-03-20T06:34:28.661Z,4484.00
2019-03-20T06:35:28.604Z,4496.00
2019-03-20T06:36:28.533Z,4476.00
2019-03-20T06:37:32.514Z,4444.00
2019-03-20T06:38:28.334Z,4440.00
2019-03-20T06:39:28.234Z,4344.00
2019-03-20T06:40:28.147Z,4284.00
2019-03-20T06:41:28.082Z,4432.00
2019-03-20T06:42:27.988Z,4336.00
2019-03-20T06:43:27.894Z,4544.00
2019-03-20T06:44:27.800Z,4832.00
2019-03-20T06:45:27.715Z,5036.00
2019-03-20T06:46:27.647Z,5180.00
2019-03-20T06:47:27.542Z,5340.00
2019-03-20T06:48:27.469Z,5524.00
2019-03-20T06:49:27.373Z,5736.00
2019-03-20T06:50:27.296Z,5848.00
2019-03-20T06:51:27.223Z,5924.00
2019-03-20T06:52:27.129Z,5952.00
2019-03-20T06:53:27.033Z,5956.00
2019-03-20T06:54:26.965Z,5936.00
2019-03-20T06:55:26.864Z,5948.00
2019-03-20T06:56:26.792Z,6200.00
2019-03-20T06:57:26.688Z,6444.00
2019-03-20T06:58:26.607Z,6788.00
2019-03-20T06:59:26.525Z,7004.00
2019-03-20T07:00:26.435Z,7072.00
2019-03-20T07:01:26.833Z,7008.00
2019-03-20T07:02:26.272Z,6516.00
2019-03-20T07:03:26.183Z,5960.00
2019-03-20T07:04:26.093Z,5796.00
2019-03-20T07:05:26.014Z,5708.00
2019-03-20T07:06:25.937Z,6660.00
2019-03-20T07:07:25.842Z,7556.00
2019-03-20T07:08:25.771Z,7716.00
2019-03-20T07:09:25.681Z,7960.00
2019-03-20T07:10:25.586Z,8396.00
2019-03-20T07:11:25.512Z,8584.00
2019-03-20T07:12:25.408Z,8736.00
2019-03-20T07:13:25.335Z,8972.00
2019-03-20T07:14:25.240Z,9144.00
2019-03-20T07:15:25.164Z,9224.00
2019-03-20T07:16:25.087Z,9456.00
2019-03-20T07:17:24.991Z,9608.00
2019-03-20T07:18:24.906Z,9796.00
2019-03-20T07:19:24.824Z,10084.00
2019-03-20T07:20:24.739Z,10352.00
2019-03-20T07:21:24.659Z,10384.00
2019-03-20T07:22:24.565Z,10044.00
2019-03-20T07:23:24.478Z,9772.00
2019-03-20T07:24:24.390Z,10100.00
2019-03-20T07:25:24.316Z,10456.00
2019-03-20T07:26:24.250Z,10408.00
2019-03-20T07:27:24.139Z,10292.00
2019-03-20T07:28:24.063Z,10616.00
2019-03-20T07:29:23.967Z,10812.00
2019-03-20T07:30:23.886Z,10820.00
2019-03-20T07:31:23.822Z,10624.00
2019-03-20T07:32:23.714Z,10380.00
2019-03-20T07:33:23.629Z,10652.00
2019-03-20T07:34:23.552Z,10948.00
2019-03-20T07:35:23.464Z,11292.00
2019-03-20T07:36:23.397Z,11456.00
2019-03-20T07:37:23.293Z,11696.00
2019-03-20T07:38:23.208Z,11844.00
2019-03-20T07:39:23.133Z,11976.00
2019-03-20T07:40:23.050Z,12716.00
2019-03-20T07:41:22.967Z,13108.00
2019-03-20T07:42:22.884Z,13452.00
2019-03-20T07:43:22.788Z,13920.00
2019-03-20T07:44:22.713Z,14516.00
2019-03-20T07:45:22.626Z,15068.00
2019-03-20T07:46:22.552Z,15256.00
2019-03-20T07:47:22.450Z,15136.00
2019-03-20T07:48:22.749Z,15156.00
2019-03-20T07:49:22.294Z,15476.00
2019-03-20T07:50:22.210Z,15932.00
2019-03-20T07:51:22.125Z,16384.00
2019-03-20T07:52:22.035Z,16692.00
2019-03-20T07:53:21.944Z,16884.00
2019-03-20T07:54:21.870Z,16880.00
2019-03-20T07:55:21.781Z,16528.00
2019-03-20T07:56:21.717Z,16176.00
2019-03-20T07:57:21.610Z,15216.00
2019-03-20T07:58:21.532Z,15180.00
2019-03-20T07:59:21.441Z,14816.00
2019-03-20T08:00:21.360Z,14348.00
2019-03-20T08:01:21.292Z,13976.00
2019-03-20T08:02:21.201Z,13560.00
2019-03-20T08:03:21.113Z,12992.00
2019-03-20T08:04:21.023Z,12584.00
2019-03-20T08:05:28.845Z,13456.00
2019-03-20T08:06:20.880Z,14204.00
2019-03-20T08:07:20.772Z,15072.00
2019-03-20T08:08:20.696Z,15852.00
2019-03-20T08:09:20.642Z,16156.00
2019-03-20T08:10:20.531Z,16328.00
2019-03-20T08:11:20.437Z,16820.00
2019-03-20T08:12:20.418Z,17536.00
2019-03-20T08:13:20.271Z,18176.00
2019-03-20T08:14:20.189Z,18464.00
2019-03-20T08:15:20.108Z,18016.00
2019-03-20T08:16:20.023Z,18304.00
2019-03-20T08:17:19.960Z,18656.00
2019-03-20T08:18:19.861Z,18848.00
2019-03-20T08:19:19.773Z,19424.00
2019-03-20T08:20:19.693Z,20288.00
2019-03-20T08:21:19.609Z,21056.00
2019-03-20T08:22:19.534Z,21600.00
2019-03-20T08:23:19.442Z,21632.00
2019-03-20T08:24:19.358Z,21312.00
2019-03-20T08:25:19.274Z,22112.00
2019-03-20T08:26:19.197Z,22848.00
2019-03-20T08:27:19.118Z,23552.00
2019-03-20T08:28:19.020Z,23680.00
2019-03-20T08:29:18.948Z,23616.00
2019-03-20T08:30:18.854Z,23648.00
2019-03-20T08:31:18.776Z,23744.00
2019-03-20T08:32:18.706Z,23616.00
2019-03-20T08:33:18.610Z,23104.00
2019-03-20T08:34:18.531Z,22848.00
2019-03-20T08:35:18.448Z,22912.00
2019-03-20T08:36:18.361Z,23200.00
2019-03-20T08:37:18.291Z,23520.00
2019-03-20T08:38:18.994Z,23744.00
2019-03-20T08:39:18.147Z,23776.00
2019-03-20T08:40:18.031Z,23936.00
2019-03-20T08:41:17.943Z,23104.00
2019-03-20T08:42:17.908Z,22720.00
2019-03-20T08:43:17.795Z,23104.00
2019-03-20T08:44:17.711Z,24640.00
2019-03-20T08:45:17.629Z,26496.00
2019-03-20T08:46:17.531Z,26752.00
2019-03-20T08:47:17.479Z,26944.00
2019-03-20T08:48:17.369Z,26624.00
2019-03-20T08:49:17.307Z,25504.00
2019-03-20T08:50:17.225Z,25056.00
2019-03-20T08:51:17.124Z,25088.00
2019-03-20T08:52:17.060Z,26048.00
2019-03-20T08:53:16.970Z,27616.00
2019-03-20T08:54:16.887Z,28800.00
2019-03-20T08:55:16.802Z,29696.00
2019-03-20T08:56:16.715Z,30144.00
2019-03-20T08:57:16.670Z,30464.00
2019-03-20T08:58:16.562Z,30368.00
2019-03-20T08:59:18.119Z,30336.00
2019-03-20T09:00:16.386Z,30336.00
2019-03-20T09:01:16.299Z,31296.00
2019-03-20T09:02:16.232Z,32288.00
2019-03-20T09:03:16.134Z,32800.00
2019-03-20T09:04:16.062Z,33024.00
2019-03-20T09:05:15.967Z,32768.00
2019-03-20T09:06:15.898Z,32928.00
2019-03-20T09:07:15.820Z,33120.00
2019-03-20T09:08:15.775Z,33344.00
2019-03-20T09:09:15.653Z,32320.00
2019-03-20T09:10:15.558Z,32736.00
2019-03-20T09:11:15.483Z,34240.00
2019-03-20T09:12:15.425Z,35936.00
2019-03-20T09:13:15.332Z,37568.00
2019-03-20T09:14:15.264Z,39072.00
2019-03-20T09:15:15.148Z,41248.00
2019-03-20T09:16:15.082Z,42560.00
2019-03-20T09:17:15.024Z,46176.00
2019-03-20T09:18:14.919Z,58368.00
2019-03-20T09:19:14.823Z,66048.00
2019-03-20T09:20:14.749Z,50560.00
2019-03-20T09:21:14.677Z,70464.00
2019-03-20T09:22:14.599Z,65152.00
2019-03-20T09:23:14.500Z,65440.00
2019-03-20T09:24:14.429Z,52384.00
2019-03-20T09:25:14.345Z,43200.00
2019-03-20T09:26:14.261Z,46464.00
2019-03-20T09:27:14.200Z,43520.00
2019-03-20T09:28:14.104Z,38624.00
2019-03-20T09:29:18.476Z,37632.00
2019-03-20T09:30:13.953Z,37216.00
2019-03-20T09:31:13.859Z,37344.00
2019-03-20T09:32:13.805Z,38432.00
2019-03-20T09:33:13.707Z,39264.00
2019-03-20T09:34:13.617Z,40896.00
2019-03-20T09:35:13.545Z,42144.00
2019-03-20T09:36:13.458Z,43200.00
2019-03-20T09:37:13.391Z,46336.00
2019-03-20T09:38:13.307Z,41888.00
2019-03-20T09:39:13.227Z,42080.00
2019-03-20T09:40:13.145Z,43488.00
2019-03-20T09:41:13.068Z,45248.00
2019-03-20T09:42:12.996Z,43072.00
2019-03-20T09:43:12.913Z,44480.00
2019-03-20T09:44:12.828Z,46208.00
2019-03-20T09:45:12.740Z,52096.00
2019-03-20T09:46:12.658Z,51584.00
2019-03-20T09:47:12.602Z,48288.00
2019-03-20T09:48:12.502Z,47488.00
2019-03-20T09:49:12.422Z,52032.00
2019-03-20T09:50:12.352Z,47872.00
2019-03-20T09:51:12.260Z,47776.00
2019-03-20T09:52:12.198Z,53472.00
2019-03-20T09:53:12.099Z,49248.00
2019-03-20T09:54:12.031Z,47648.00
2019-03-20T09:55:11.942Z,46464.00
2019-03-20T09:56:11.865Z,44672.00
2019-03-20T09:57:11.798Z,41696.00
2019-03-20T09:58:12.112Z,41824.00
2019-03-20T09:59:11.618Z,41568.00
2019-03-20T10:00:11.539Z,42272.00
2019-03-20T10:01:11.463Z,42496.00
2019-03-20T10:02:11.414Z,43936.00
2019-03-20T10:03:11.304Z,42432.00
2019-03-20T10:04:11.224Z,38752.00
2019-03-20T10:05:11.145Z,38848.00
2019-03-20T10:06:11.065Z,38816.00
2019-03-20T10:07:10.982Z,39136.00
2019-03-20T10:08:10.917Z,39968.00
2019-03-20T10:09:10.827Z,40192.00
2019-03-20T10:10:10.738Z,43040.00
2019-03-20T10:11:10.695Z,44384.00
2019-03-20T10:12:10.604Z,47232.00
2019-03-20T10:13:10.528Z,48000.00
2019-03-20T10:14:10.451Z,48832.00
2019-03-20T10:15:10.338Z,49728.00
2019-03-20T10:16:10.258Z,50848.00
2019-03-20T10:17:10.185Z,51680.00
2019-03-20T10:18:10.131Z,52288.00
2019-03-20T10:19:10.042Z,53760.00
2019-03-20T10:20:30.973Z,53024.00
2019-03-20T10:21:09.887Z,51488.00
2019-03-20T10:22:09.783Z,51904.00
2019-03-20T10:23:09.720Z,51200.00
2019-03-20T10:24:09.642Z,48864.00
2019-03-20T10:25:09.547Z,47264.00
2019-03-20T10:26:09.626Z,45568.00
2019-03-20T10:27:09.384Z,42816.00
2019-03-20T10:28:09.321Z,41696.00
2019-03-20T10:29:09.338Z,41376.00
2019-03-20T10:30:09.151Z,41152.00
2019-03-20T10:31:09.078Z,40544.00
2019-03-20T10:32:09.006Z,39776.00
2019-03-20T10:33:08.933Z,40128.00
2019-03-20T10:34:08.837Z,40608.00
2019-03-20T10:35:08.761Z,41856.00
2019-03-20T10:36:08.674Z,42976.00
2019-03-20T10:37:08.603Z,42784.00
2019-03-20T10:38:08.531Z,45056.00
2019-03-20T10:39:08.488Z,44608.00
2019-03-20T10:40:08.383Z,47424.00
2019-03-20T10:41:08.298Z,51808.00
2019-03-20T10:42:08.225Z,54336.00
2019-03-20T10:43:08.148Z,51808.00
2019-03-20T10:44:08.061Z,52384.00
2019-03-20T10:45:07.979Z,53088.00
2019-03-20T10:46:07.899Z,54048.00
2019-03-20T10:47:07.831Z,59584.00
2019-03-20T10:48:07.754Z,66336.00
2019-03-20T10:49:07.667Z,62176.00
2019-03-20T10:50:07.582Z,63904.00
2019-03-20T10:51:07.505Z,63776.00
2019-03-20T10:52:07.432Z,64288.00
2019-03-20T10:53:07.357Z,63520.00
2019-03-20T10:54:07.276Z,59840.00
2019-03-20T10:55:07.203Z,53216.00
2019-03-20T10:56:07.118Z,53888.00
2019-03-20T10:57:07.039Z,53216.00
2019-03-20T10:58:06.976Z,50656.00
2019-03-20T10:59:06.947Z,47392.00
2019-03-20T11:00:06.799Z,42560.00
2019-03-20T11:01:06.743Z,39616.00
2019-03-20T11:02:06.655Z,37344.00
2019-03-20T11:03:06.601Z,35456.00
2019-03-20T11:04:06.483Z,33824.00
2019-03-20T11:05:06.412Z,32384.00
2019-03-20T11:06:06.337Z,31488.00
2019-03-20T11:07:06.261Z,30976.00
2019-03-20T11:08:06.202Z,30816.00
2019-03-20T11:09:17.421Z,31136.00
2019-03-20T11:10:06.025Z,32000.00
2019-03-20T11:11:05.939Z,33376.00
2019-03-20T11:12:05.926Z,34848.00
2019-03-20T11:13:05.804Z,35936.00
2019-03-20T11:14:05.701Z,37216.00
2019-03-20T11:15:05.625Z,40000.00
2019-03-20T11:16:05.539Z,43136.00
2019-03-20T11:17:05.465Z,42208.00
2019-03-20T11:18:05.420Z,45920.00
2019-03-20T11:19:05.325Z,49056.00
2019-03-20T11:20:05.220Z,58176.00
2019-03-20T11:21:06.322Z,57504.00
2019-03-20T11:22:05.203Z,58688.00
2019-03-20T11:23:05.009Z,61760.00
2019-03-20T11:24:04.915Z,59360.00
2019-03-20T11:25:04.837Z,60960.00
2019-03-20T11:26:04.748Z,58080.00
2019-03-20T11:27:04.683Z,57632.00
2019-03-20T11:28:04.597Z,51552.00
2019-03-20T11:29:04.519Z,56320.00
2019-03-20T11:30:04.426Z,50944.00
2019-03-20T11:31:04.358Z,51552.00
2019-03-20T11:32:04.281Z,53440.00
2019-03-20T11:33:04.276Z,47456.00
2019-03-20T11:34:04.111Z,44480.00
2019-03-20T11:35:04.043Z,49248.00
2019-03-20T11:36:03.952Z,50368.00
2019-03-20T11:37:03.881Z,54208.00
2019-03-20T11:38:03.820Z,57376.00
2019-03-20T11:39:03.722Z,56064.00
2019-03-20T11:40:03.651Z,56864.00
2019-03-20T11:41:03.562Z,53568.00
2019-03-20T11:42:03.495Z,49696.00
2019-03-20T11:43:03.419Z,47872.00
2019-03-20T11:44:03.341Z,48000.00
2019-03-20T11:45:03.252Z,48544.00
2019-03-20T11:46:03.184Z,46688.00
2019-03-20T11:47:03.094Z,44256.00
2019-03-20T11:48:03.024Z,43296.00
2019-03-20T11:49:02.958Z,42656.00
2019-03-20T11:50:02.863Z,42656.00
2019-03-20T11:51:02.798Z,42208.00
2019-03-20T11:52:02.727Z,41440.00
2019-03-20T11:53:02.634Z,42752.00
2019-03-20T11:54:02.564Z,43136.00
2019-03-20T11:55:02.485Z,43328.00
2019-03-20T11:56:02.395Z,44320.00
2019-03-20T11:57:02.311Z,44800.00
2019-03-20T11:58:02.254Z,44512.00
2019-03-20T11:59:02.188Z,44992.00
2019-03-20T12:00:02.088Z,46976.00
2019-03-20T12:01:02.001Z,49888.00
2019-03-20T12:02:01.933Z,48064.00
2019-03-20T12:03:01.844Z,46720.00
2019-03-20T12:04:01.789Z,50400.00
2019-03-20T12:05:01.690Z,55904.00
2019-03-20T12:06:01.621Z,57408.00
2019-03-20T12:07:01.531Z,56512.00
2019-03-20T12:08:01.463Z,57952.00
2019-03-20T12:09:01.388Z,55296.00
2019-03-20T12:10:01.312Z,55104.00
2019-03-20T12:11:01.217Z,49408.00
2019-03-20T12:12:01.165Z,50976.00
2019-03-20T12:13:01.071Z,49056.00
2019-03-20T12:14:01.012Z,47968.00
2019-03-20T12:15:00.908Z,50976.00
2019-03-20T12:16:00.833Z,55136.00
2019-03-20T12:17:00.762Z,62048.00
2019-03-20T12:18:00.688Z,62336.00
2019-03-20T12:19:00.620Z,66688.00
2019-03-20T12:20:00.525Z,65248.00
2019-03-20T12:21:00.453Z,63328.00
2019-03-20T12:22:00.369Z,75808.00
2019-03-20T12:23:00.296Z,66464.00
2019-03-20T12:24:00.220Z,79712.00
2019-03-20T12:25:00.351Z,60320.00